sensor_id;sensor_type;location;lat;lon;timestamp;pressure;altitude;pressure_sealevel;temperature;humidity
13553;BME280;6847;48.830;9.116;2022-10-23T00:01:32;97929.97;;;15.71;58.43
13553;BME280;6847;48.830;9.116;2022-10-23T00:04:05;97965.28;;;15.89;58.61
13553;BME280;6847;48.830;9.116;2022-10-23T00:06:37;97964.91;;;15.82;58.72
13553;BME280;6847;48.830;9.116;2022-10-23T00:09:11;97940.31;;;15.60;58.90
13553;BME280;6847;48.830;9.116;2022-10-23T00:11:38;97964.34;;;15.72;58.79
13553;BME280;6847;48.830;9.116;2022-10-23T00:14:07;97922.03;;;15.47;58.90
13553;BME280;6847;48.830;9.116;2022-10-23T00:16:41;97950.25;;;15.56;59.19
13553;BME280;6847;48.830;9.116;2022-10-23T00:19:09;97955.06;;;15.59;59.01
13553;BME280;6847;48.830;9.116;2022-10-23T00:21:38;97954.09;;;15.55;59.02
13553;BME280;6847;48.830;9.116;2022-10-23T00:24:10;97951.94;;;15.52;59.06
13553;BME280;6847;48.830;9.116;2022-10-23T00:26:40;97913.91;;;15.19;59.21
13553;BME280;6847;48.830;9.116;2022-10-23T00:29:10;97966.19;;;15.49;59.16
13553;BME280;6847;48.830;9.116;2022-10-23T00:31:37;97961.34;;;15.46;59.23
13553;BME280;6847;48.830;9.116;2022-10-23T00:34:07;97965.19;;;15.45;59.19
13553;BME280;6847;48.830;9.116;2022-10-23T00:36:38;97964.38;;;15.44;59.29
13553;BME280;6847;48.830;9.116;2022-10-23T00:39:06;97912.72;;;15.12;59.45
13553;BME280;6847;48.830;9.116;2022-10-23T00:41:37;97966.81;;;15.46;59.40
13553;BME280;6847;48.830;9.116;2022-10-23T00:44:07;97962.97;;;15.47;59.50
13553;BME280;6847;48.830;9.116;2022-10-23T00:46:35;97961.34;;;15.46;59.66
13553;BME280;6847;48.830;9.116;2022-10-23T00:49:12;97971.16;;;15.47;59.50
13553;BME280;6847;48.830;9.116;2022-10-23T00:51:43;97955.91;;;15.46;59.51
13553;BME280;6847;48.830;9.116;2022-10-23T00:54:13;97946.41;;;15.43;59.60
13553;BME280;6847;48.830;9.116;2022-10-23T00:56:43;97954.06;;;15.41;59.53
13553;BME280;6847;48.830;9.116;2022-10-23T00:59:12;97885.88;;;15.05;59.78
13553;BME280;6847;48.830;9.116;2022-10-23T01:01:41;97949.56;;;15.37;59.68
13553;BME280;6847;48.830;9.116;2022-10-23T01:04:09;97950.97;;;15.34;59.60
13553;BME280;6847;48.830;9.116;2022-10-23T01:06:43;97941.97;;;15.34;59.58
13553;BME280;6847;48.830;9.116;2022-10-23T01:09:21;97940.34;;;15.33;59.78
13553;BME280;6847;48.830;9.116;2022-10-23T01:11:54;97945.81;;;15.33;59.94
13553;BME280;6847;48.830;9.116;2022-10-23T01:14:28;97944.19;;;15.32;59.90
13553;BME280;6847;48.830;9.116;2022-10-23T01:17:05;97878.53;;;14.92;59.94
13553;BME280;6847;48.830;9.116;2022-10-23T01:19:50;97945.59;;;15.29;60.13
13553;BME280;6847;48.830;9.116;2022-10-23T01:22:38;97937.75;;;15.28;60.11
13553;BME280;6847;48.830;9.116;2022-10-23T01:25:22;97928.25;;;15.25;60.07
13553;BME280;6847;48.830;9.116;2022-10-23T01:27:59;97924.22;;;15.23;60.08
13553;BME280;6847;48.830;9.116;2022-10-23T01:30:30;97925.31;;;15.22;60.12
13553;BME280;6847;48.830;9.116;2022-10-23T01:33:03;97918.75;;;15.23;60.09
13553;BME280;6847;48.830;9.116;2022-10-23T01:35:35;97909.78;;;15.22;60.32
13553;BME280;6847;48.830;9.116;2022-10-23T01:38:06;97912.81;;;15.21;60.43
13553;BME280;6847;48.830;9.116;2022-10-23T01:40:41;97917.75;;;15.18;60.33
13553;BME280;6847;48.830;9.116;2022-10-23T01:43:17;97881.03;;;15.02;60.36
13553;BME280;6847;48.830;9.116;2022-10-23T01:45:48;97906.38;;;15.16;60.48
13553;BME280;6847;48.830;9.116;2022-10-23T01:48:20;97906.38;;;15.16;60.54
13553;BME280;6847;48.830;9.116;2022-10-23T01:50:50;97903.31;;;15.18;60.59
13553;BME280;6847;48.830;9.116;2022-10-23T01:53:20;97905.72;;;15.19;60.79
13553;BME280;6847;48.830;9.116;2022-10-23T02:01:03;97906.22;;;15.22;60.78
13553;BME280;6847;48.830;9.116;2022-10-23T02:03:34;97900.56;;;15.18;60.82
13553;BME280;6847;48.830;9.116;2022-10-23T02:06:04;97902.03;;;15.15;60.90
13553;BME280;6847;48.830;9.116;2022-10-23T02:08:31;97894.94;;;15.14;60.66
13553;BME280;6847;48.830;9.116;2022-10-23T02:11:06;97890.09;;;15.11;60.60
13553;BME280;6847;48.830;9.116;2022-10-23T02:13:41;97870.03;;;14.94;60.89
13553;BME280;6847;48.830;9.116;2022-10-23T02:16:21;97772.41;;;14.32;60.68
13553;BME280;6847;48.830;9.116;2022-10-23T02:18:53;97891.34;;;15.05;60.84
13553;BME280;6847;48.830;9.116;2022-10-23T02:21:27;97826.78;;;14.65;61.08
13553;BME280;6847;48.830;9.116;2022-10-23T02:23:59;97877.19;;;15.03;60.92
13553;BME280;6847;48.830;9.116;2022-10-23T02:26:31;97878.81;;;15.04;60.96
13553;BME280;6847;48.830;9.116;2022-10-23T02:29:06;97826.56;;;14.75;60.90
13553;BME280;6847;48.830;9.116;2022-10-23T02:31:35;97872.75;;;15.07;61.02
13553;BME280;6847;48.830;9.116;2022-10-23T02:34:03;97876.47;;;15.11;61.01
13553;BME280;6847;48.830;9.116;2022-10-23T02:36:30;97876.97;;;15.13;60.92
13553;BME280;6847;48.830;9.116;2022-10-23T02:38:58;97869.28;;;15.15;60.93
13553;BME280;6847;48.830;9.116;2022-10-23T02:41:32;97867.06;;;15.17;60.84
13553;BME280;6847;48.830;9.116;2022-10-23T02:44:27;97778.75;;;14.69;60.83
13553;BME280;6847;48.830;9.116;2022-10-23T02:47:18;97861.78;;;15.21;61.15
13553;BME280;6847;48.830;9.116;2022-10-23T02:49:53;97853.31;;;15.23;60.99
13553;BME280;6847;48.830;9.116;2022-10-23T02:52:25;97847.34;;;15.21;61.25
13553;BME280;6847;48.830;9.116;2022-10-23T02:55:07;97847.03;;;15.22;61.27
13553;BME280;6847;48.830;9.116;2022-10-23T02:57:41;97844.63;;;15.21;61.28
13553;BME280;6847;48.830;9.116;2022-10-23T03:00:13;97849.25;;;15.20;61.34
13553;BME280;6847;48.830;9.116;2022-10-23T03:02:45;97790.91;;;14.85;61.15
13553;BME280;6847;48.830;9.116;2022-10-23T03:05:17;97845.25;;;15.17;61.18
13553;BME280;6847;48.830;9.116;2022-10-23T03:07:48;97845.25;;;15.17;60.91
13553;BME280;6847;48.830;9.116;2022-10-23T03:10:16;97843.63;;;15.16;61.44
13553;BME280;6847;48.830;9.116;2022-10-23T03:12:43;97825.25;;;15.08;61.48
13553;BME280;6847;48.830;9.116;2022-10-23T03:15:25;97822.06;;;15.06;61.31
13553;BME280;6847;48.830;9.116;2022-10-23T03:17:55;97843.44;;;15.13;61.47
13553;BME280;6847;48.830;9.116;2022-10-23T03:20:22;97845.34;;;15.12;61.66
13553;BME280;6847;48.830;9.116;2022-10-23T03:22:50;97843.75;;;15.11;61.53
13553;BME280;6847;48.830;9.116;2022-10-23T03:25:24;97846.47;;;15.11;61.64
13553;BME280;6847;48.830;9.116;2022-10-23T03:27:51;97844.84;;;15.10;61.46
13553;BME280;6847;48.830;9.116;2022-10-23T03:30:18;97837.31;;;15.07;61.60
13553;BME280;6847;48.830;9.116;2022-10-23T03:32:47;97829.72;;;15.04;61.63
13553;BME280;6847;48.830;9.116;2022-10-23T03:35:16;97824.06;;;15.01;61.82
13553;BME280;6847;48.830;9.116;2022-10-23T03:37:44;97827.09;;;14.99;61.96
13553;BME280;6847;48.830;9.116;2022-10-23T03:40:12;97817.44;;;14.93;61.85
13553;BME280;6847;48.830;9.116;2022-10-23T03:42:40;97822.09;;;14.93;61.67
13553;BME280;6847;48.830;9.116;2022-10-23T03:45:09;97836.91;;;15.00;61.71
13553;BME280;6847;48.830;9.116;2022-10-23T03:47:37;97825.38;;;15.03;61.48
13553;BME280;6847;48.830;9.116;2022-10-23T03:50:06;97819.63;;;15.05;61.80
13553;BME280;6847;48.830;9.116;2022-10-23T03:52:35;97818.22;;;15.07;61.45
13553;BME280;6847;48.830;9.116;2022-10-23T03:55:01;97812.78;;;15.07;61.77
13553;BME280;6847;48.830;9.116;2022-10-23T03:57:28;97817.41;;;15.07;61.52
13553;BME280;6847;48.830;9.116;2022-10-23T03:59:56;97816.59;;;15.06;61.85
13553;BME280;6847;48.830;9.116;2022-10-23T04:02:24;97815.00;;;15.05;61.84
13553;BME280;6847;48.830;9.116;2022-10-23T04:04:52;97797.97;;;14.86;62.01
13553;BME280;6847;48.830;9.116;2022-10-23T04:07:19;97832.16;;;15.06;61.65
13553;BME280;6847;48.830;9.116;2022-10-23T04:09:47;97808.97;;;14.95;62.00
13553;BME280;6847;48.830;9.116;2022-10-23T04:12:15;97823.66;;;15.07;62.02
13553;BME280;6847;48.830;9.116;2022-10-23T04:14:42;97820.94;;;15.07;62.05
13553;BME280;6847;48.830;9.116;2022-10-23T04:17:09;97813.97;;;15.01;61.84
13553;BME280;6847;48.830;9.116;2022-10-23T04:19:36;97824.47;;;15.08;62.10
13553;BME280;6847;48.830;9.116;2022-10-23T04:22:02;97831.84;;;15.07;62.00
13553;BME280;6847;48.830;9.116;2022-10-23T04:24:29;97836.81;;;15.05;62.08
13553;BME280;6847;48.830;9.116;2022-10-23T04:26:57;97828.31;;;15.07;62.28
13553;BME280;6847;48.830;9.116;2022-10-23T04:29:24;97832.31;;;15.09;62.29
13553;BME280;6847;48.830;9.116;2022-10-23T04:31:57;97815.00;;;15.05;62.24
13553;BME280;6847;48.830;9.116;2022-10-23T04:34:24;97831.94;;;15.16;62.20
13553;BME280;6847;48.830;9.116;2022-10-23T04:36:50;97832.09;;;15.19;62.02
13553;BME280;6847;48.830;9.116;2022-10-23T04:39:17;97831.19;;;15.24;62.24
13553;BME280;6847;48.830;9.116;2022-10-23T04:41:44;97826.41;;;15.30;62.10
13553;BME280;6847;48.830;9.116;2022-10-23T04:44:12;97775.81;;;15.01;61.87
13553;BME280;6847;48.830;9.116;2022-10-23T04:46:40;97822.63;;;15.39;61.89
13553;BME280;6847;48.830;9.116;2022-10-23T04:49:08;97823.13;;;15.41;62.08
13553;BME280;6847;48.830;9.116;2022-10-23T04:51:35;97822.31;;;15.41;61.98
13553;BME280;6847;48.830;9.116;2022-10-23T04:54:03;97827.78;;;15.41;62.16
13553;BME280;6847;48.830;9.116;2022-10-23T04:56:32;97823.13;;;15.41;62.14
13553;BME280;6847;48.830;9.116;2022-10-23T04:58:58;97818.97;;;15.44;62.03
13553;BME280;6847;48.830;9.116;2022-10-23T05:01:27;97816.41;;;15.47;61.86
13553;BME280;6847;48.830;9.116;2022-10-23T05:03:53;97820.44;;;15.50;62.30
13553;BME280;6847;48.830;9.116;2022-10-23T05:06:22;97825.28;;;15.53;62.09
13553;BME280;6847;48.830;9.116;2022-10-23T05:08:49;97822.47;;;15.58;62.22
13553;BME280;6847;48.830;9.116;2022-10-23T05:11:16;97821.03;;;15.61;62.17
13553;BME280;6847;48.830;9.116;2022-10-23T05:13:45;97816.38;;;15.61;62.19
13553;BME280;6847;48.830;9.116;2022-10-23T05:16:25;97819.91;;;15.62;62.09
13553;BME280;6847;48.830;9.116;2022-10-23T05:18:58;97818.63;;;15.59;62.26
13553;BME280;6847;48.830;9.116;2022-10-23T05:21:28;97811.53;;;15.58;62.51
13553;BME280;6847;48.830;9.116;2022-10-23T05:23:57;97800.16;;;15.56;62.33
13553;BME280;6847;48.830;9.116;2022-10-23T05:26:26;97806.72;;;15.55;62.32
13553;BME280;6847;48.830;9.116;2022-10-23T05:28:55;97799.13;;;15.52;62.45
13553;BME280;6847;48.830;9.116;2022-10-23T05:31:23;97815.00;;;15.50;62.51
13553;BME280;6847;48.830;9.116;2022-10-23T05:33:50;97804.88;;;15.50;62.61
13553;BME280;6847;48.830;9.116;2022-10-23T05:36:20;97805.13;;;15.54;62.63
13553;BME280;6847;48.830;9.116;2022-10-23T05:38:47;97799.03;;;15.57;62.38
13553;BME280;6847;48.830;9.116;2022-10-23T05:41:15;97796.78;;;15.59;62.53
13553;BME280;6847;48.830;9.116;2022-10-23T05:43:41;97792.13;;;15.60;62.40
13553;BME280;6847;48.830;9.116;2022-10-23T05:46:10;97799.50;;;15.59;62.62
13553;BME280;6847;48.830;9.116;2022-10-23T05:48:39;97778.22;;;15.47;62.69
13553;BME280;6847;48.830;9.116;2022-10-23T05:51:08;97789.31;;;15.51;62.79
13553;BME280;6847;48.830;9.116;2022-10-23T05:53:37;97643.72;;;14.63;62.58
13553;BME280;6847;48.830;9.116;2022-10-23T05:56:05;97762.56;;;15.31;62.79
13553;BME280;6847;48.830;9.116;2022-10-23T05:58:33;97776.44;;;15.43;62.87
13553;BME280;6847;48.830;9.116;2022-10-23T06:01:04;97716.53;;;15.07;62.77
13553;BME280;6847;48.830;9.116;2022-10-23T06:03:31;97772.59;;;15.44;62.96
13553;BME280;6847;48.830;9.116;2022-10-23T06:05:58;97770.38;;;15.46;63.04
13553;BME280;6847;48.830;9.116;2022-10-23T06:08:25;97776.50;;;15.51;63.04
13553;BME280;6847;48.830;9.116;2022-10-23T06:10:53;97768.31;;;15.51;62.94
13553;BME280;6847;48.830;9.116;2022-10-23T06:13:22;97743.81;;;15.38;62.79
13553;BME280;6847;48.830;9.116;2022-10-23T06:15:49;97778.38;;;15.65;62.87
13553;BME280;6847;48.830;9.116;2022-10-23T06:18:16;97782.88;;;15.69;62.91
13553;BME280;6847;48.830;9.116;2022-10-23T06:20:42;97767.00;;;15.71;62.73
13553;BME280;6847;48.830;9.116;2022-10-23T06:23:11;97767.00;;;15.71;62.87
13553;BME280;6847;48.830;9.116;2022-10-23T06:25:38;97768.00;;;15.75;62.85
13553;BME280;6847;48.830;9.116;2022-10-23T06:28:06;97772.19;;;15.81;63.09
13553;BME280;6847;48.830;9.116;2022-10-23T06:30:33;97777.03;;;15.84;62.81
13553;BME280;6847;48.830;9.116;2022-10-23T06:33:00;97775.25;;;15.88;62.84
13553;BME280;6847;48.830;9.116;2022-10-23T06:35:26;97779.81;;;15.93;62.85
13553;BME280;6847;48.830;9.116;2022-10-23T06:37:53;97755.19;;;15.84;62.64
13553;BME280;6847;48.830;9.116;2022-10-23T06:40:20;97776.94;;;16.07;62.68
13553;BME280;6847;48.830;9.116;2022-10-23T06:42:47;97773.13;;;16.16;62.65
13553;BME280;6847;48.830;9.116;2022-10-23T06:45:15;97775.25;;;16.28;62.66
13553;BME280;6847;48.830;9.116;2022-10-23T06:47:42;97767.25;;;16.40;62.40
13553;BME280;6847;48.830;9.116;2022-10-23T06:50:12;97768.56;;;16.51;62.42
13553;BME280;6847;48.830;9.116;2022-10-23T06:52:39;97759.28;;;16.61;62.36
13553;BME280;6847;48.830;9.116;2022-10-23T06:55:06;97733.38;;;16.50;62.08
13553;BME280;6847;48.830;9.116;2022-10-23T06:57:33;97737.22;;;16.57;62.44
13553;BME280;6847;48.830;9.116;2022-10-23T07:00:03;97752.09;;;16.74;62.51
13553;BME280;6847;48.830;9.116;2022-10-23T07:02:33;97757.69;;;16.86;62.09
13553;BME280;6847;48.830;9.116;2022-10-23T07:05:00;97516.31;;;15.47;62.13
13553;BME280;6847;48.830;9.116;2022-10-23T07:07:28;97748.53;;;17.08;62.28
13553;BME280;6847;48.830;9.116;2022-10-23T07:09:55;97758.53;;;17.21;61.85
13553;BME280;6847;48.830;9.116;2022-10-23T07:12:22;97761.06;;;17.43;61.85
13553;BME280;6847;48.830;9.116;2022-10-23T07:14:50;97760.72;;;17.62;61.60
13553;BME280;6847;48.830;9.116;2022-10-23T07:17:17;97729.63;;;17.58;61.41
13553;BME280;6847;48.830;9.116;2022-10-23T07:19:47;97762.09;;;17.85;61.33
13553;BME280;6847;48.830;9.116;2022-10-23T07:22:14;97758.06;;;17.91;61.78
13553;BME280;6847;48.830;9.116;2022-10-23T07:24:41;97619.34;;;17.11;61.62
13553;BME280;6847;48.830;9.116;2022-10-23T07:27:09;97768.31;;;18.11;61.26
13553;BME280;6847;48.830;9.116;2022-10-23T07:29:36;97751.09;;;18.32;61.38
13553;BME280;6847;48.830;9.116;2022-10-23T07:32:03;97753.50;;;18.63;60.67
13553;BME280;6847;48.830;9.116;2022-10-23T07:34:30;97761.97;;;18.78;60.73
13553;BME280;6847;48.830;9.116;2022-10-23T07:36:58;97756.13;;;19.01;60.36
13553;BME280;6847;48.830;9.116;2022-10-23T07:39:25;97756.03;;;19.30;59.81
13553;BME280;6847;48.830;9.116;2022-10-23T07:41:54;97745.91;;;19.64;59.35
13553;BME280;6847;48.830;9.116;2022-10-23T07:44:20;97778.75;;;20.17;58.85
13553;BME280;6847;48.830;9.116;2022-10-23T07:46:47;97777.28;;;20.56;58.42
13553;BME280;6847;48.830;9.116;2022-10-23T07:49:14;97783.72;;;21.00;57.97
13553;BME280;6847;48.830;9.116;2022-10-23T07:51:40;97784.84;;;21.52;57.04
13553;BME280;6847;48.830;9.116;2022-10-23T07:54:10;97789.44;;;22.19;56.34
13553;BME280;6847;48.830;9.116;2022-10-23T07:56:38;97782.81;;;22.71;55.68
13553;BME280;6847;48.830;9.116;2022-10-23T07:59:06;97796.72;;;23.29;54.95
13553;BME280;6847;48.830;9.116;2022-10-23T08:01:35;97782.69;;;24.18;53.73
13553;BME280;6847;48.830;9.116;2022-10-23T08:04:04;97655.38;;;24.14;52.66
13553;BME280;6847;48.830;9.116;2022-10-23T08:06:30;97676.72;;;24.66;52.61
13553;BME280;6847;48.830;9.116;2022-10-23T08:08:57;97773.09;;;25.77;52.66
13553;BME280;6847;48.830;9.116;2022-10-23T08:11:25;97710.50;;;25.76;52.13
13553;BME280;6847;48.830;9.116;2022-10-23T08:13:54;97666.91;;;26.21;51.14
13553;BME280;6847;48.830;9.116;2022-10-23T08:16:21;97769.72;;;27.58;50.56
13553;BME280;6847;48.830;9.116;2022-10-23T08:18:48;97759.09;;;27.96;50.21
13553;BME280;6847;48.830;9.116;2022-10-23T08:21:17;97749.56;;;28.61;49.33
13553;BME280;6847;48.830;9.116;2022-10-23T08:23:43;97783.66;;;29.50;48.32
13553;BME280;6847;48.830;9.116;2022-10-23T08:26:10;97778.09;;;30.20;47.66
13553;BME280;6847;48.830;9.116;2022-10-23T08:28:38;97785.97;;;30.35;48.33
13553;BME280;6847;48.830;9.116;2022-10-23T08:31:06;97768.38;;;30.38;48.33
13553;BME280;6847;48.830;9.116;2022-10-23T08:33:33;97773.38;;;30.09;49.07
13553;BME280;6847;48.830;9.116;2022-10-23T08:36:00;97767.75;;;29.40;50.61
13553;BME280;6847;48.830;9.116;2022-10-23T08:38:26;97758.75;;;28.65;51.72
13553;BME280;6847;48.830;9.116;2022-10-23T08:40:55;97751.53;;;27.89;53.03
13553;BME280;6847;48.830;9.116;2022-10-23T08:43:29;97750.56;;;27.39;53.81
13553;BME280;6847;48.830;9.116;2022-10-23T08:46:05;97727.41;;;27.14;53.60
13553;BME280;6847;48.830;9.116;2022-10-23T08:48:37;97729.88;;;27.37;52.68
13553;BME280;6847;48.830;9.116;2022-10-23T08:51:07;97739.63;;;28.10;51.58
13553;BME280;6847;48.830;9.116;2022-10-23T08:53:40;97664.09;;;28.22;50.07
13553;BME280;6847;48.830;9.116;2022-10-23T08:56:13;97720.50;;;28.76;49.74
13553;BME280;6847;48.830;9.116;2022-10-23T08:58:46;97737.97;;;29.05;49.22
13553;BME280;6847;48.830;9.116;2022-10-23T09:01:36;97741.75;;;29.64;48.61
13553;BME280;6847;48.830;9.116;2022-10-23T09:04:09;97754.81;;;30.40;47.37
13553;BME280;6847;48.830;9.116;2022-10-23T09:06:40;97751.66;;;31.20;46.25
13553;BME280;6847;48.830;9.116;2022-10-23T09:09:30;97755.63;;;32.14;45.00
13553;BME280;6847;48.830;9.116;2022-10-23T09:12:02;97739.81;;;32.78;44.05
13553;BME280;6847;48.830;9.116;2022-10-23T09:17:34;97765.78;;;33.84;43.14
13553;BME280;6847;48.830;9.116;2022-10-23T09:20:12;97753.69;;;34.20;42.84
13553;BME280;6847;48.830;9.116;2022-10-23T09:22:42;97763.06;;;34.65;42.40
13553;BME280;6847;48.830;9.116;2022-10-23T09:25:09;97763.03;;;34.98;42.16
13553;BME280;6847;48.830;9.116;2022-10-23T09:27:45;97759.13;;;35.24;42.38
13553;BME280;6847;48.830;9.116;2022-10-23T09:30:24;97765.09;;;35.68;41.61
13553;BME280;6847;48.830;9.116;2022-10-23T09:32:56;97771.00;;;35.86;41.54
13553;BME280;6847;48.830;9.116;2022-10-23T09:35:24;97737.19;;;35.86;41.48
13553;BME280;6847;48.830;9.116;2022-10-23T09:37:51;97738.50;;;35.69;41.94
13553;BME280;6847;48.830;9.116;2022-10-23T09:40:24;97748.19;;;35.68;41.87
13553;BME280;6847;48.830;9.116;2022-10-23T09:42:58;97758.22;;;35.69;41.86
13553;BME280;6847;48.830;9.116;2022-10-23T09:45:30;97740.25;;;35.79;41.59
13553;BME280;6847;48.830;9.116;2022-10-23T09:48:10;97748.59;;;35.82;41.46
13553;BME280;6847;48.830;9.116;2022-10-23T09:50:44;97734.72;;;35.88;41.29
13553;BME280;6847;48.830;9.116;2022-10-23T09:53:22;97733.47;;;36.14;40.63
13553;BME280;6847;48.830;9.116;2022-10-23T09:55:52;97704.19;;;36.24;40.66
13553;BME280;6847;48.830;9.116;2022-10-23T09:58:26;97719.25;;;36.56;40.29
13553;BME280;6847;48.830;9.116;2022-10-23T10:00:56;97720.56;;;36.77;39.98
13553;BME280;6847;48.830;9.116;2022-10-23T10:03:36;97722.41;;;36.92;39.79
13553;BME280;6847;48.830;9.116;2022-10-23T10:06:16;97728.06;;;36.92;39.63
13553;BME280;6847;48.830;9.116;2022-10-23T10:08:47;97739.22;;;36.49;39.79
13553;BME280;6847;48.830;9.116;2022-10-23T10:11:24;97738.13;;;35.83;40.87
13553;BME280;6847;48.830;9.116;2022-10-23T10:13:53;97746.34;;;35.48;40.74
13553;BME280;6847;48.830;9.116;2022-10-23T10:16:32;97738.47;;;34.53;42.32
13553;BME280;6847;48.830;9.116;2022-10-23T10:19:14;97698.75;;;33.66;43.09
13553;BME280;6847;48.830;9.116;2022-10-23T10:21:51;97733.72;;;33.62;42.45
13553;BME280;6847;48.830;9.116;2022-10-23T10:24:22;97683.22;;;33.02;42.94
13553;BME280;6847;48.830;9.116;2022-10-23T10:26:57;97727.00;;;33.20;42.69
13553;BME280;6847;48.830;9.116;2022-10-23T10:29:43;97721.16;;;33.30;42.38
13553;BME280;6847;48.830;9.116;2022-10-23T10:32:26;97712.88;;;33.43;42.35
13553;BME280;6847;48.830;9.116;2022-10-23T10:35:07;97714.59;;;33.76;41.85
13553;BME280;6847;48.830;9.116;2022-10-23T10:37:47;97707.72;;;34.30;40.15
13553;BME280;6847;48.830;9.116;2022-10-23T10:40:25;97698.28;;;34.20;40.69
13553;BME280;6847;48.830;9.116;2022-10-23T10:43:10;97689.56;;;33.82;40.61
13553;BME280;6847;48.830;9.116;2022-10-23T10:45:40;97674.38;;;33.43;41.01
13553;BME280;6847;48.830;9.116;2022-10-23T10:48:30;97668.88;;;33.00;41.25
13553;BME280;6847;48.830;9.116;2022-10-23T10:51:10;97666.44;;;32.59;42.12
13553;BME280;6847;48.830;9.116;2022-10-23T10:53:49;97662.34;;;31.67;42.60
13553;BME280;6847;48.830;9.116;2022-10-23T10:56:19;97686.59;;;30.79;43.84
13553;BME280;6847;48.830;9.116;2022-10-23T10:58:56;97681.03;;;29.83;44.68
13553;BME280;6847;48.830;9.116;2022-10-23T11:01:29;97682.22;;;29.08;45.01
13553;BME280;6847;48.830;9.116;2022-10-23T11:04:03;97680.34;;;28.63;45.28
13553;BME280;6847;48.830;9.116;2022-10-23T11:06:34;97676.00;;;28.33;44.90
13553;BME280;6847;48.830;9.116;2022-10-23T11:09:13;97678.41;;;28.21;44.73
13553;BME280;6847;48.830;9.116;2022-10-23T11:11:41;97670.41;;;28.12;44.64
13553;BME280;6847;48.830;9.116;2022-10-23T11:14:14;97664.47;;;28.03;44.61
13553;BME280;6847;48.830;9.116;2022-10-23T11:16:45;97652.16;;;27.97;44.16
13553;BME280;6847;48.830;9.116;2022-10-23T11:19:18;97647.38;;;27.83;44.36
13553;BME280;6847;48.830;9.116;2022-10-23T11:21:57;97653.72;;;27.73;44.36
13553;BME280;6847;48.830;9.116;2022-10-23T11:24:41;97613.91;;;27.37;44.25
13553;BME280;6847;48.830;9.116;2022-10-23T11:27:19;97636.16;;;27.37;44.39
13553;BME280;6847;48.830;9.116;2022-10-23T11:30:08;97620.25;;;27.27;44.51
13553;BME280;6847;48.830;9.116;2022-10-23T11:33:02;97611.50;;;27.18;44.36
13553;BME280;6847;48.830;9.116;2022-10-23T11:35:42;97607.47;;;27.05;44.49
13553;BME280;6847;48.830;9.116;2022-10-23T11:38:17;97603.09;;;26.97;44.26
13553;BME280;6847;48.830;9.116;2022-10-23T11:40:48;97587.47;;;26.67;44.28
13553;BME280;6847;48.830;9.116;2022-10-23T11:43:25;97619.19;;;26.59;44.58
13553;BME280;6847;48.830;9.116;2022-10-23T11:45:56;97517.16;;;25.73;44.67
13553;BME280;6847;48.830;9.116;2022-10-23T11:48:35;97612.53;;;26.16;45.00
13553;BME280;6847;48.830;9.116;2022-10-23T11:51:23;97607.72;;;26.02;45.20
13553;BME280;6847;48.830;9.116;2022-10-23T11:53:52;97603.75;;;26.07;44.92
13553;BME280;6847;48.830;9.116;2022-10-23T11:56:30;97591.94;;;26.13;44.63
13553;BME280;6847;48.830;9.116;2022-10-23T11:59:18;97590.78;;;26.22;44.21
13553;BME280;6847;48.830;9.116;2022-10-23T12:01:48;97559.88;;;26.23;44.09
13553;BME280;6847;48.830;9.116;2022-10-23T12:04:20;97596.97;;;26.59;44.05
13553;BME280;6847;48.830;9.116;2022-10-23T12:06:52;97583.84;;;26.56;44.12
13553;BME280;6847;48.830;9.116;2022-10-23T12:09:26;97595.84;;;26.74;43.77
13553;BME280;6847;48.830;9.116;2022-10-23T12:12:25;97590.75;;;26.90;43.95
13553;BME280;6847;48.830;9.116;2022-10-23T12:15:08;97590.84;;;27.12;43.83
13553;BME280;6847;48.830;9.116;2022-10-23T12:17:37;97582.16;;;27.31;43.44
13553;BME280;6847;48.830;9.116;2022-10-23T12:20:27;97553.53;;;27.27;43.54
13553;BME280;6847;48.830;9.116;2022-10-23T12:23:08;97574.22;;;27.47;43.63
13553;BME280;6847;48.830;9.116;2022-10-23T12:25:48;97568.66;;;27.47;43.73
13553;BME280;6847;48.830;9.116;2022-10-23T12:28:28;97580.19;;;27.63;43.53
13553;BME280;6847;48.830;9.116;2022-10-23T12:31:17;97594.50;;;27.76;43.45
13553;BME280;6847;48.830;9.116;2022-10-23T12:33:54;97582.19;;;27.77;43.40
13553;BME280;6847;48.830;9.116;2022-10-23T12:36:35;97546.81;;;27.63;43.23
13553;BME280;6847;48.830;9.116;2022-10-23T12:39:24;97571.00;;;28.16;43.20
13553;BME280;6847;48.830;9.116;2022-10-23T12:41:53;97562.63;;;28.45;43.03
13553;BME280;6847;48.830;9.116;2022-10-23T12:44:22;97571.69;;;28.77;43.01
13553;BME280;6847;48.830;9.116;2022-10-23T12:46:53;97511.97;;;28.78;42.79
13553;BME280;6847;48.830;9.116;2022-10-23T12:49:24;97553.81;;;29.30;42.54
13553;BME280;6847;48.830;9.116;2022-10-23T12:52:00;97550.53;;;29.49;42.70
13553;BME280;6847;48.830;9.116;2022-10-23T12:54:30;97547.72;;;29.53;42.51
13553;BME280;6847;48.830;9.116;2022-10-23T12:57:01;97547.00;;;29.90;42.32
13553;BME280;6847;48.830;9.116;2022-10-23T12:59:35;97543.16;;;30.51;41.42
13553;BME280;6847;48.830;9.116;2022-10-23T13:02:13;97529.66;;;31.07;41.37
13553;BME280;6847;48.830;9.116;2022-10-23T13:04:50;97535.69;;;31.59;40.80
13553;BME280;6847;48.830;9.116;2022-10-23T13:07:22;97530.75;;;32.14;40.54
13553;BME280;6847;48.830;9.116;2022-10-23T13:09:52;97464.66;;;32.20;40.26
13553;BME280;6847;48.830;9.116;2022-10-23T13:12:34;97525.28;;;33.05;40.15
13553;BME280;6847;48.830;9.116;2022-10-23T13:15:14;97478.22;;;32.97;39.82
13553;BME280;6847;48.830;9.116;2022-10-23T13:17:44;97442.03;;;32.66;39.92
13553;BME280;6847;48.830;9.116;2022-10-23T13:20:23;97509.06;;;32.97;40.56
13553;BME280;6847;48.830;9.116;2022-10-23T13:23:00;97500.09;;;32.86;40.37
13553;BME280;6847;48.830;9.116;2022-10-23T13:25:35;97504.44;;;33.06;40.49
13553;BME280;6847;48.830;9.116;2022-10-23T13:28:23;97521.72;;;33.21;40.36
13553;BME280;6847;48.830;9.116;2022-10-23T13:31:23;97429.63;;;32.84;40.20
13553;BME280;6847;48.830;9.116;2022-10-23T13:34:14;97493.28;;;32.87;40.07
13553;BME280;6847;48.830;9.116;2022-10-23T13:36:50;97503.94;;;32.36;40.77
13553;BME280;6847;48.830;9.116;2022-10-23T13:39:22;97503.50;;;31.94;40.95
13553;BME280;6847;48.830;9.116;2022-10-23T13:41:50;97506.63;;;31.53;41.08
13553;BME280;6847;48.830;9.116;2022-10-23T13:44:19;97503.97;;;31.19;41.17